createdAt,value
2019-01-14T09:56:38.824Z,994.72
2019-01-14T09:57:38.817Z,994.64
2019-01-14T09:58:38.829Z,994.78
2019-01-14T09:59:38.773Z,994.87
2019-01-14T10:00:38.808Z,994.72
2019-01-14T10:01:38.744Z,994.79
2019-01-14T10:02:38.736Z,994.74
2019-01-14T10:03:38.720Z,994.76
2019-01-14T10:04:38.733Z,994.74
2019-01-14T10:05:38.714Z,994.72
2019-01-14T10:06:38.702Z,994.66
2019-01-14T10:07:38.698Z,994.66
2019-01-14T10:08:43.061Z,994.66
2019-01-14T10:09:39.715Z,994.63
2019-01-14T10:10:38.823Z,994.64
2019-01-14T10:11:38.715Z,994.69
2019-01-14T10:12:38.626Z,994.71
2019-01-14T10:13:38.655Z,994.67
2019-01-14T10:14:39.962Z,994.68
2019-01-14T10:15:38.590Z,994.69
2019-01-14T10:16:38.623Z,994.79
2019-01-14T10:17:38.572Z,994.86
2019-01-14T10:18:38.588Z,994.79
2019-01-14T10:19:38.548Z,994.82
2019-01-14T10:20:38.544Z,994.77
2019-01-14T10:21:38.533Z,994.81
2019-01-14T10:22:39.122Z,994.80
2019-01-14T10:23:38.504Z,994.90
2019-01-14T10:24:38.510Z,994.86
2019-01-14T10:25:38.474Z,994.93
2019-01-14T10:26:38.465Z,994.89
2019-01-14T10:27:38.470Z,994.96
2019-01-14T10:28:38.510Z,994.97
2019-01-14T10:29:38.436Z,994.96
2019-01-14T10:30:38.482Z,994.95
2019-01-14T10:31:38.427Z,994.98
2019-01-14T10:32:38.554Z,995.03
2019-01-14T10:33:38.397Z,995.02
2019-01-14T10:34:39.559Z,995.01
2019-01-14T10:35:38.407Z,995.06
2019-01-14T10:36:38.380Z,995.07
2019-01-14T10:37:38.381Z,995.10
2019-01-14T10:38:38.411Z,995.22
2019-01-14T10:39:38.408Z,995.21
2019-01-14T10:40:38.365Z,995.13
2019-01-14T10:41:38.322Z,995.21
2019-01-14T10:42:38.344Z,995.19
2019-01-14T10:44:02.942Z,995.19
2019-01-14T10:45:03.012Z,995.23
2019-01-14T10:46:02.886Z,995.24
2019-01-14T10:47:02.904Z,995.23
2019-01-14T10:48:02.935Z,995.27
2019-01-14T10:49:06.837Z,995.30
2019-01-14T10:50:03.033Z,995.23
2019-01-14T10:51:02.844Z,995.40
2019-01-14T10:52:03.839Z,995.30
2019-01-14T10:53:02.814Z,995.28
2019-01-14T10:54:02.849Z,995.29
2019-01-14T10:55:12.096Z,995.27
2019-01-14T10:56:28.014Z,995.32
2019-01-14T10:57:27.986Z,995.34
2019-01-14T10:58:27.957Z,995.37
2019-01-14T10:59:27.992Z,995.34
2019-01-14T11:00:36.520Z,995.40
2019-01-14T11:02:05.033Z,995.42
2019-01-14T11:03:02.771Z,995.47
2019-01-14T11:04:02.672Z,995.39
2019-01-14T11:05:02.680Z,995.47
2019-01-14T11:06:02.653Z,995.42
2019-01-14T11:07:02.630Z,995.46
2019-01-14T11:08:02.766Z,995.49
2019-01-14T11:09:06.059Z,995.48
2019-01-14T11:10:02.614Z,995.49
2019-01-14T11:11:02.717Z,995.49
2019-01-14T11:12:02.581Z,995.47
2019-01-14T11:13:02.561Z,995.49
2019-01-14T11:14:02.560Z,995.47
2019-01-14T11:15:03.337Z,995.52
2019-01-14T11:16:02.549Z,995.50
2019-01-14T11:17:02.536Z,995.47
2019-01-14T11:18:02.530Z,995.45
2019-01-14T11:19:02.500Z,995.53
2019-01-14T11:20:02.502Z,995.47
2019-01-14T11:21:02.500Z,995.51
2019-01-14T11:22:02.496Z,995.55
2019-01-14T11:23:02.464Z,995.46
2019-01-14T11:24:02.451Z,995.52
2019-01-14T11:25:02.623Z,995.54
2019-01-14T11:26:02.541Z,995.54
2019-01-14T11:27:02.416Z,995.53
2019-01-14T11:28:02.466Z,995.58
2019-01-14T11:29:02.394Z,995.56
2019-01-14T11:30:03.307Z,995.62
2019-01-14T11:31:02.374Z,995.66
2019-01-14T11:32:02.406Z,995.65
2019-01-14T11:33:02.370Z,995.64
2019-01-14T11:34:02.341Z,995.70
2019-01-14T11:35:02.318Z,995.59
2019-01-14T11:36:02.409Z,995.61
2019-01-14T11:37:02.330Z,995.66
2019-01-14T11:38:02.333Z,995.62
2019-01-14T11:39:05.203Z,995.60
2019-01-14T11:40:05.437Z,995.68
2019-01-14T11:41:02.301Z,995.70
2019-01-14T11:42:02.249Z,995.65
2019-01-14T11:43:02.259Z,995.66
2019-01-14T11:44:02.263Z,995.71
2019-01-14T11:45:02.233Z,995.56
2019-01-14T11:46:02.239Z,995.58
2019-01-14T11:47:02.689Z,995.59
2019-01-14T11:48:03.195Z,995.60
2019-01-14T11:49:03.256Z,995.60
2019-01-14T11:50:02.165Z,995.54
2019-01-14T11:51:02.171Z,995.56
2019-01-14T11:52:02.159Z,995.61
2019-01-14T11:53:02.139Z,995.64
2019-01-14T11:54:02.144Z,995.57
2019-01-14T11:55:02.129Z,995.64
2019-01-14T11:56:02.101Z,995.71
2019-01-14T11:57:02.088Z,995.64
2019-01-14T11:58:02.089Z,995.76
2019-01-14T11:59:02.080Z,995.82
2019-01-14T12:00:02.082Z,995.86
2019-01-14T12:01:02.060Z,996.08
2019-01-14T12:02:02.029Z,996.02
2019-01-14T12:03:02.047Z,996.13
2019-01-14T12:04:02.009Z,996.46
2019-01-14T12:05:02.013Z,996.56
2019-01-14T12:06:02.141Z,996.58
2019-01-14T12:07:02.026Z,996.41
2019-01-14T12:08:01.976Z,996.31
2019-01-14T12:09:01.974Z,996.14
2019-01-14T12:10:02.035Z,995.96
2019-01-14T12:11:01.942Z,996.02
2019-01-14T12:12:01.944Z,996.07
2019-01-14T12:13:01.933Z,996.24
2019-01-14T12:14:01.914Z,996.14
2019-01-14T12:15:01.892Z,996.20
2019-01-14T12:16:01.899Z,996.20
2019-01-14T12:17:01.919Z,996.22
2019-01-14T12:18:01.892Z,996.20
2019-01-14T12:19:01.866Z,996.15
2019-01-14T12:20:01.835Z,996.16
2019-01-14T12:21:01.820Z,995.95
2019-01-14T12:22:01.859Z,995.93
2019-01-14T12:23:01.831Z,995.98
2019-01-14T12:24:01.788Z,996.02
2019-01-14T12:25:01.784Z,996.04
2019-01-14T12:26:01.789Z,996.09
2019-01-14T12:27:01.780Z,996.07
2019-01-14T12:28:01.751Z,996.11
2019-01-14T12:29:01.845Z,996.13
2019-01-14T12:30:01.732Z,996.15
2019-01-14T12:31:01.788Z,996.11
2019-01-14T12:32:01.705Z,996.17
2019-01-14T12:33:01.698Z,996.20
2019-01-14T12:34:01.699Z,996.35
2019-01-14T12:35:01.688Z,996.30
2019-01-14T12:36:01.676Z,996.37
2019-01-14T12:37:01.648Z,996.41
2019-01-14T12:38:01.652Z,996.47
2019-01-14T12:39:01.636Z,996.45
2019-01-14T12:40:01.614Z,996.43
2019-01-14T12:41:01.608Z,996.40
2019-01-14T12:42:01.595Z,996.43
2019-01-14T12:43:01.613Z,996.41
2019-01-14T12:44:01.565Z,996.40
2019-01-14T12:45:01.587Z,996.36
2019-01-14T12:46:01.559Z,996.40
2019-01-14T12:47:01.572Z,996.40
2019-01-14T12:48:01.546Z,996.44
2019-01-14T12:49:01.507Z,996.35
2019-01-14T12:50:01.492Z,996.36
2019-01-14T12:51:01.487Z,996.40
2019-01-14T12:52:01.490Z,996.39
2019-01-14T12:53:01.484Z,996.39
2019-01-14T12:54:01.523Z,996.33
2019-01-14T12:55:01.485Z,996.41
2019-01-14T12:56:01.437Z,996.39
2019-01-14T12:57:01.439Z,996.45
2019-01-14T12:58:01.436Z,996.51
2019-01-14T12:59:01.408Z,996.53
2019-01-14T13:00:01.406Z,996.58
2019-01-14T13:01:01.378Z,996.55
2019-01-14T13:02:01.367Z,996.54
2019-01-14T13:03:01.364Z,996.53
2019-01-14T13:04:01.346Z,996.61
2019-01-14T13:05:01.357Z,996.60
2019-01-14T13:06:01.323Z,996.58
2019-01-14T13:07:01.345Z,996.59
2019-01-14T13:08:01.335Z,996.57
2019-01-14T13:09:01.689Z,996.59
2019-01-14T13:10:01.294Z,996.56
2019-01-14T13:11:01.269Z,996.52
2019-01-14T13:12:01.279Z,996.51
2019-01-14T13:13:01.240Z,996.56
2019-01-14T13:14:01.249Z,996.54
2019-01-14T13:15:01.229Z,996.60
2019-01-14T13:16:01.238Z,996.66
2019-01-14T13:17:01.337Z,996.60
2019-01-14T13:18:05.385Z,996.67
2019-01-14T13:19:01.178Z,996.71
2019-01-14T13:20:01.182Z,996.72
2019-01-14T13:21:01.157Z,996.68
2019-01-14T13:22:01.213Z,996.67
2019-01-14T13:23:01.141Z,996.67
2019-01-14T13:24:01.138Z,996.65
2019-01-14T13:25:01.236Z,996.70
2019-01-14T13:26:01.107Z,996.66
2019-01-14T13:27:01.084Z,996.63
2019-01-14T13:28:01.093Z,996.68
2019-01-14T13:29:01.071Z,996.66
2019-01-14T13:30:01.143Z,996.71
2019-01-14T13:31:01.063Z,996.68
2019-01-14T13:32:01.039Z,996.73
2019-01-14T13:33:01.026Z,996.72
2019-01-14T13:34:01.025Z,996.72
2019-01-14T13:35:00.996Z,996.66
2019-01-14T13:36:00.999Z,996.67
2019-01-14T13:37:00.993Z,996.63
2019-01-14T13:38:00.989Z,996.63
2019-01-14T13:39:00.958Z,996.68
2019-01-14T13:40:00.963Z,996.72
2019-01-14T13:41:00.939Z,996.65
2019-01-14T13:42:00.955Z,996.62
2019-01-14T13:43:00.923Z,996.67
2019-01-14T13:44:00.912Z,996.66
2019-01-14T13:45:00.902Z,996.67
2019-01-14T13:46:00.881Z,996.71
2019-01-14T13:47:00.978Z,996.68
2019-01-14T13:48:00.914Z,996.64
2019-01-14T13:49:01.053Z,996.64
2019-01-14T13:50:00.877Z,996.67
2019-01-14T13:51:00.840Z,996.60
2019-01-14T13:52:00.817Z,996.60
2019-01-14T13:53:00.813Z,996.58
2019-01-14T13:54:00.791Z,996.61
2019-01-14T13:55:00.786Z,996.66
2019-01-14T13:56:00.773Z,996.68
2019-01-14T13:57:00.808Z,996.72
2019-01-14T13:58:00.770Z,996.74
2019-01-14T13:59:00.741Z,996.71
2019-01-14T14:00:00.791Z,996.56
2019-01-14T14:01:00.715Z,996.68
2019-01-14T14:02:00.721Z,996.72
2019-01-14T14:03:00.701Z,996.75
2019-01-14T14:04:00.683Z,996.71
2019-01-14T14:05:00.698Z,996.80
2019-01-14T14:06:00.666Z,996.79
2019-01-14T14:07:00.664Z,996.76
2019-01-14T14:08:00.646Z,996.85
2019-01-14T14:09:00.647Z,996.90
2019-01-14T14:10:00.635Z,996.93
2019-01-14T14:11:00.618Z,996.91
2019-01-14T14:12:00.649Z,996.90
2019-01-14T14:13:00.598Z,996.95
2019-01-14T14:14:00.634Z,997.10
2019-01-14T14:15:00.737Z,997.25
2019-01-14T14:16:00.559Z,997.56
2019-01-14T14:17:00.550Z,997.63
2019-01-14T14:18:00.550Z,997.74
2019-01-14T14:19:00.535Z,997.58
2019-01-14T14:20:00.513Z,997.68
2019-01-14T14:21:00.503Z,997.67
2019-01-14T14:22:01.485Z,997.65
2019-01-14T14:23:00.479Z,997.69
2019-01-14T14:24:00.499Z,997.77
2019-01-14T14:25:00.454Z,997.74
2019-01-14T14:26:00.460Z,997.73
2019-01-14T14:27:00.453Z,997.73
2019-01-14T14:28:00.490Z,997.76
2019-01-14T14:29:00.442Z,997.75
2019-01-14T14:30:00.411Z,997.78
2019-01-14T14:31:00.396Z,997.80
2019-01-14T14:32:00.398Z,997.76
2019-01-14T14:33:00.384Z,997.70
2019-01-14T14:34:00.366Z,997.84
2019-01-14T14:35:00.349Z,997.78
2019-01-14T14:36:00.343Z,997.73
2019-01-14T14:37:01.029Z,997.83
2019-01-14T14:38:01.233Z,997.84
2019-01-14T14:39:00.323Z,997.85
2019-01-14T14:40:00.291Z,997.85
2019-01-14T14:41:00.324Z,997.92
2019-01-14T14:42:00.272Z,997.88
2019-01-14T14:43:00.266Z,997.88
2019-01-14T14:44:00.267Z,997.95
2019-01-14T14:45:00.245Z,997.92
2019-01-14T14:46:14.387Z,997.93
2019-01-14T14:47:25.775Z,998.05
2019-01-14T14:48:25.757Z,998.03
2019-01-14T14:49:25.759Z,998.11
2019-01-14T14:50:25.715Z,998.15
2019-01-14T14:51:25.710Z,998.16
2019-01-14T14:52:25.689Z,998.14
2019-01-14T14:53:25.699Z,998.16
2019-01-14T14:54:25.716Z,998.13
2019-01-14T14:55:25.696Z,998.17
2019-01-14T14:56:25.646Z,998.19
2019-01-14T14:57:25.653Z,998.24
2019-01-14T14:58:25.628Z,998.21
2019-01-14T14:59:25.634Z,998.20
2019-01-14T15:00:25.614Z,998.21
2019-01-14T15:01:25.595Z,998.29
2019-01-14T15:02:25.586Z,998.20
2019-01-14T15:03:25.598Z,998.41
2019-01-14T15:04:25.631Z,998.34
2019-01-14T15:05:25.561Z,998.37
2019-01-14T15:06:25.593Z,998.40
2019-01-14T15:07:25.528Z,998.40
2019-01-14T15:08:25.521Z,998.49
2019-01-14T15:09:31.589Z,998.41
2019-01-14T15:10:51.310Z,998.46
2019-01-14T15:11:51.077Z,998.43
2019-01-14T15:12:51.067Z,998.47
2019-01-14T15:13:51.057Z,998.53
2019-01-14T15:14:51.047Z,998.52
2019-01-14T15:15:51.091Z,998.54
2019-01-14T15:16:51.026Z,998.57
2019-01-14T15:17:51.017Z,998.59
2019-01-14T15:18:51.002Z,998.60
2019-01-14T15:19:50.986Z,998.64
2019-01-14T15:20:50.998Z,998.62
2019-01-14T15:21:50.958Z,998.61
2019-01-14T15:22:50.974Z,998.70
2019-01-14T15:23:51.779Z,998.65
2019-01-14T15:24:50.930Z,998.68
2019-01-14T15:25:50.924Z,998.67
2019-01-14T15:26:50.897Z,998.75
2019-01-14T15:27:50.904Z,998.78
2019-01-14T15:28:50.877Z,998.80
2019-01-14T15:29:50.877Z,998.81
2019-01-14T15:30:51.039Z,998.74
2019-01-14T15:31:50.864Z,998.72
2019-01-14T15:32:50.844Z,998.76
2019-01-14T15:33:50.841Z,998.76
2019-01-14T15:34:50.817Z,998.75
2019-01-14T15:35:50.806Z,998.80
2019-01-14T15:36:50.803Z,998.80
2019-01-14T15:37:50.785Z,998.82
2019-01-14T15:38:50.780Z,998.89
2019-01-14T15:39:50.773Z,998.93
2019-01-14T15:40:50.774Z,998.84
2019-01-14T15:41:50.747Z,998.86
2019-01-14T15:42:50.744Z,998.87
2019-01-14T15:43:50.720Z,998.91
2019-01-14T15:44:50.703Z,998.92
2019-01-14T15:45:50.694Z,998.86
2019-01-14T15:46:50.701Z,998.95
2019-01-14T15:47:50.671Z,998.96
2019-01-14T15:48:50.665Z,998.97
2019-01-14T15:49:50.663Z,998.99
2019-01-14T15:50:51.584Z,999.09
2019-01-14T15:51:50.637Z,999.03
2019-01-14T15:52:50.620Z,999.09
2019-01-14T15:53:50.713Z,999.07
2019-01-14T15:54:50.623Z,999.13
2019-01-14T15:55:50.717Z,999.09
2019-01-14T15:56:50.662Z,999.13
2019-01-14T15:57:51.562Z,999.10
2019-01-14T15:58:50.561Z,999.21
2019-01-14T15:59:50.569Z,999.28
2019-01-14T16:00:50.533Z,999.22
2019-01-14T16:01:50.526Z,999.16
2019-01-14T16:02:50.546Z,999.16
2019-01-14T16:03:50.531Z,999.19
2019-01-14T16:04:50.537Z,999.20
2019-01-14T16:05:50.545Z,999.16
2019-01-14T16:06:50.469Z,999.16
2019-01-14T16:07:50.926Z,999.14
2019-01-14T16:08:50.482Z,999.15
2019-01-14T16:09:50.443Z,999.11
2019-01-14T16:10:50.433Z,999.15
2019-01-14T16:11:50.425Z,999.16
2019-01-14T16:12:50.424Z,999.24
2019-01-14T16:13:50.399Z,999.28
2019-01-14T16:14:50.389Z,999.30
2019-01-14T16:15:50.371Z,999.36
2019-01-14T16:16:50.357Z,999.39
2019-01-14T16:17:50.349Z,999.27
2019-01-14T16:18:50.419Z,999.26
2019-01-14T16:19:50.330Z,999.28
2019-01-14T16:20:50.340Z,999.34
2019-01-14T16:21:50.307Z,999.31
2019-01-14T16:22:50.326Z,999.33
2019-01-14T16:23:50.284Z,999.38
2019-01-14T16:24:50.291Z,999.30
2019-01-14T16:25:50.268Z,999.36
2019-01-14T16:26:50.355Z,999.37
2019-01-14T16:28:50.231Z,999.47
